createdAt,value
2022-10-08T00:00:09.595Z,20.27
2022-10-08T00:00:46.197Z,18.67
2022-10-08T00:01:19.951Z,19.50
2022-10-08T00:01:51.553Z,20.92
2022-10-08T00:02:23.141Z,19.98
2022-10-08T00:02:54.655Z,19.98
2022-10-08T00:03:29.323Z,22.13
2022-10-08T00:04:01.138Z,19.83
2022-10-08T00:04:33.034Z,20.75
2022-10-08T00:05:05.025Z,20.42
2022-10-08T00:05:36.551Z,22.88
2022-10-08T00:06:13.031Z,21.67
2022-10-08T00:06:44.627Z,17.25
2022-10-08T00:07:16.795Z,20.25
2022-10-08T00:07:48.422Z,20.70
2022-10-08T00:08:19.934Z,18.67
2022-10-08T00:08:56.878Z,18.77
2022-10-08T00:09:28.525Z,20.30
2022-10-08T00:10:00.074Z,19.02
2022-10-08T00:10:33.043Z,21.45
2022-10-08T00:11:07.451Z,19.38
2022-10-08T00:11:40.040Z,19.73
2022-10-08T00:12:11.546Z,20.58
2022-10-08T00:12:43.075Z,21.23
2022-10-08T00:13:14.577Z,20.58
2022-10-08T00:13:48.124Z,20.00
2022-10-08T00:14:19.744Z,20.77
2022-10-08T00:14:51.285Z,20.73
2022-10-08T00:15:22.788Z,22.67
2022-10-08T00:15:55.115Z,23.05
2022-10-08T00:16:28.642Z,21.67
2022-10-08T00:17:00.222Z,23.58
2022-10-08T00:17:31.747Z,21.60
2022-10-08T00:18:03.353Z,22.63
2022-10-08T00:18:34.993Z,21.27
2022-10-08T00:19:10.891Z,22.20
2022-10-08T00:19:43.106Z,21.40
2022-10-08T00:20:14.774Z,20.70
2022-10-08T00:20:47.662Z,20.60
2022-10-08T00:21:37.015Z,21.58
2022-10-08T00:22:08.536Z,22.85
2022-10-08T00:22:40.029Z,22.20
2022-10-08T00:23:11.540Z,21.67
2022-10-08T00:23:45.051Z,20.25
2022-10-08T00:24:17.948Z,20.73
2022-10-08T00:24:49.954Z,19.65
2022-10-08T00:25:21.581Z,21.35
2022-10-08T00:25:53.075Z,20.25
2022-10-08T00:26:26.843Z,19.88
2022-10-08T00:26:59.551Z,20.73
2022-10-08T00:27:31.111Z,19.98
2022-10-08T00:28:02.639Z,22.13
2022-10-08T00:28:36.564Z,20.58
2022-10-08T00:29:09.737Z,23.17
2022-10-08T00:29:41.263Z,22.20
2022-10-08T00:30:13.138Z,22.10
2022-10-08T00:30:45.832Z,20.42
2022-10-08T00:31:39.274Z,19.55
2022-10-08T00:32:12.269Z,20.17
2022-10-08T00:32:45.324Z,21.77
2022-10-08T00:33:16.971Z,19.85
2022-10-08T00:33:56.579Z,20.90
2022-10-08T00:34:28.117Z,21.75
2022-10-08T00:34:59.631Z,23.42
2022-10-08T00:35:31.151Z,21.17
2022-10-08T00:36:08.377Z,21.35
2022-10-08T00:36:40.568Z,23.13
2022-10-08T00:37:12.072Z,21.15
2022-10-08T00:37:43.577Z,23.13
2022-10-08T00:38:15.081Z,24.00
2022-10-08T00:38:46.765Z,23.00
2022-10-08T00:39:20.517Z,21.23
2022-10-08T00:39:52.626Z,21.17
2022-10-08T00:40:25.134Z,21.02
2022-10-08T00:40:56.673Z,21.55
2022-10-08T00:41:30.350Z,22.33
2022-10-08T00:42:02.415Z,21.85
2022-10-08T00:42:33.950Z,21.35
2022-10-08T00:43:05.458Z,20.70
2022-10-08T00:43:46.451Z,22.75
2022-10-08T00:44:45.900Z,21.10
2022-10-08T00:45:17.419Z,21.40
2022-10-08T00:45:49.324Z,22.33
2022-10-08T00:46:50.773Z,20.95
2022-10-08T00:47:31.322Z,20.25
2022-10-08T00:48:04.156Z,21.60
2022-10-08T00:48:36.006Z,23.13
2022-10-08T00:49:11.512Z,22.63
2022-10-08T00:49:43.903Z,21.75
2022-10-08T00:50:18.223Z,21.70
2022-10-08T00:50:49.752Z,21.75
2022-10-08T00:51:21.863Z,22.13
2022-10-08T00:51:55.904Z,20.52
2022-10-08T00:52:30.393Z,22.98
2022-10-08T00:53:06.027Z,21.70
2022-10-08T00:53:37.669Z,23.08
2022-10-08T00:54:09.187Z,20.75
2022-10-08T00:54:40.905Z,24.40
2022-10-08T00:55:15.259Z,22.27
2022-10-08T00:55:46.940Z,21.45
2022-10-08T00:56:19.619Z,21.52
2022-10-08T00:56:53.720Z,21.98
2022-10-08T00:57:26.831Z,25.90
2022-10-08T00:58:02.485Z,23.05
2022-10-08T00:58:36.114Z,24.27
2022-10-08T00:59:09.331Z,22.35
2022-10-08T00:59:40.853Z,23.45
2022-10-08T01:00:19.840Z,21.33
2022-10-08T01:00:52.032Z,21.45
2022-10-08T01:01:23.711Z,22.20
2022-10-08T01:01:55.747Z,23.73
2022-10-08T01:02:27.370Z,21.17
2022-10-08T01:02:59.346Z,21.55
2022-10-08T01:03:30.878Z,22.88
2022-10-08T01:04:06.801Z,22.80
2022-10-08T01:04:40.077Z,22.42
2022-10-08T01:05:14.427Z,22.13
2022-10-08T01:06:04.426Z,21.42
2022-10-08T01:06:58.046Z,21.10
2022-10-08T01:07:54.194Z,22.55
2022-10-08T01:08:45.198Z,23.27
2022-10-08T01:09:23.661Z,22.58
2022-10-08T01:10:13.896Z,23.25
2022-10-08T01:11:03.411Z,22.00
2022-10-08T01:11:49.958Z,21.63
2022-10-08T01:12:40.138Z,19.88
2022-10-08T01:13:37.671Z,21.08
2022-10-08T01:14:49.139Z,21.60
2022-10-08T01:15:32.740Z,25.02
2022-10-08T01:16:07.110Z,20.27
2022-10-08T01:17:10.310Z,21.25
2022-10-08T01:18:10.757Z,24.42
2022-10-08T01:19:04.107Z,24.80
2022-10-08T01:19:54.834Z,25.08
2022-10-08T01:20:37.241Z,22.63
2022-10-08T01:21:15.943Z,24.08
2022-10-08T01:22:00.356Z,22.92
2022-10-08T01:22:37.256Z,22.30
2022-10-08T01:23:30.323Z,23.48
2022-10-08T01:24:52.119Z,22.40
2022-10-08T01:25:37.778Z,23.80
2022-10-08T01:26:35.676Z,20.58
2022-10-08T01:27:31.218Z,21.38
2022-10-08T01:28:19.850Z,21.92
2022-10-08T01:29:02.846Z,19.80
2022-10-08T01:29:42.085Z,22.25
2022-10-08T01:30:16.276Z,22.75
2022-10-08T01:30:58.322Z,22.42
2022-10-08T01:31:35.033Z,25.48
2022-10-08T01:32:29.386Z,24.52
2022-10-08T01:33:12.257Z,20.90
2022-10-08T01:33:48.135Z,22.13
2022-10-08T01:34:30.731Z,19.73
2022-10-08T01:35:07.455Z,22.08
2022-10-08T01:35:46.451Z,21.75
2022-10-08T01:36:20.958Z,23.70
2022-10-08T01:36:54.738Z,24.80
2022-10-08T01:37:31.891Z,21.98
2022-10-08T01:38:07.839Z,23.83
2022-10-08T01:38:44.851Z,20.75
2022-10-08T01:39:22.575Z,22.25
2022-10-08T01:39:56.414Z,23.05
2022-10-08T01:40:41.642Z,25.73
2022-10-08T01:41:17.144Z,22.83
2022-10-08T01:41:54.133Z,20.65
2022-10-08T01:42:28.012Z,23.10
2022-10-08T01:43:01.446Z,22.13
2022-10-08T01:43:38.070Z,21.38
2022-10-08T01:44:41.481Z,23.23
2022-10-08T01:45:19.791Z,23.08
2022-10-08T01:45:58.905Z,20.67
2022-10-08T01:46:31.978Z,23.67
2022-10-08T01:47:07.860Z,21.55
2022-10-08T01:47:40.914Z,20.73
2022-10-08T01:48:18.051Z,22.35
2022-10-08T01:48:53.806Z,24.17
2022-10-08T01:49:31.571Z,22.75
2022-10-08T01:50:12.785Z,21.45
2022-10-08T01:51:01.924Z,20.83
2022-10-08T01:51:39.498Z,22.20
2022-10-08T01:52:17.951Z,21.38
2022-10-08T01:52:54.302Z,23.25
2022-10-08T01:53:33.512Z,20.67
2022-10-08T01:54:09.463Z,22.52
2022-10-08T01:54:44.982Z,22.58
2022-10-08T01:55:24.651Z,24.15
2022-10-08T01:55:57.228Z,21.55
2022-10-08T01:56:31.962Z,21.45
2022-10-08T01:57:06.887Z,23.27
2022-10-08T01:57:40.147Z,19.90
2022-10-08T01:58:17.137Z,21.88
2022-10-08T01:58:54.422Z,20.77
2022-10-08T01:59:32.610Z,23.15
2022-10-08T02:00:09.573Z,22.60
2022-10-08T02:01:36.523Z,23.83
2022-10-08T02:02:22.372Z,23.20
2022-10-08T02:02:55.560Z,22.33
2022-10-08T02:03:27.109Z,21.98
2022-10-08T02:04:17.779Z,21.65
2022-10-08T02:04:53.405Z,23.15
2022-10-08T02:05:28.279Z,27.73
2022-10-08T02:06:03.074Z,25.38
2022-10-08T02:06:37.744Z,24.00
2022-10-08T02:07:19.314Z,23.38
2022-10-08T02:07:50.894Z,21.17
2022-10-08T02:08:23.042Z,21.63
2022-10-08T02:08:55.167Z,21.70
2022-10-08T02:09:28.598Z,22.02
2022-10-08T02:10:06.362Z,21.48
2022-10-08T02:10:38.609Z,20.40
2022-10-08T02:11:10.113Z,21.75
2022-10-08T02:11:41.679Z,21.90
2022-10-08T02:12:14.456Z,21.63
2022-10-08T02:12:46.406Z,20.95
2022-10-08T02:13:18.796Z,20.52
2022-10-08T02:13:50.455Z,21.17
2022-10-08T02:14:25.966Z,19.67
2022-10-08T02:14:58.779Z,20.45
2022-10-08T02:15:49.101Z,21.75
2022-10-08T02:16:34.671Z,23.75
2022-10-08T02:17:13.679Z,20.60
2022-10-08T02:18:18.401Z,21.52
2022-10-08T02:19:15.083Z,23.38
2022-10-08T02:19:56.539Z,21.20
2022-10-08T02:20:28.005Z,19.42
2022-10-08T02:21:01.886Z,21.95
2022-10-08T02:21:35.474Z,19.73
2022-10-08T02:22:07.255Z,21.60
2022-10-08T02:22:46.746Z,23.83
2022-10-08T02:23:29.773Z,19.55
2022-10-08T02:24:17.674Z,18.15
2022-10-08T02:25:00.670Z,21.30
2022-10-08T02:25:44.463Z,21.38
2022-10-08T02:26:21.798Z,20.67
2022-10-08T02:26:58.996Z,24.52
2022-10-08T02:27:57.952Z,20.48
2022-10-08T02:28:55.918Z,21.23
2022-10-08T02:29:49.458Z,20.35
2022-10-08T02:30:22.648Z,17.83
2022-10-08T02:31:00.120Z,19.25
2022-10-08T02:31:40.846Z,21.98
2022-10-08T02:32:23.691Z,21.33
2022-10-08T02:33:00.442Z,20.70
2022-10-08T02:33:37.942Z,18.17
2022-10-08T02:34:13.234Z,22.55
2022-10-08T02:34:52.960Z,20.40
2022-10-08T02:35:32.173Z,22.23
2022-10-08T02:36:08.190Z,19.70
2022-10-08T02:36:44.555Z,19.90
2022-10-08T02:37:26.722Z,19.48
2022-10-08T02:38:05.286Z,19.73
2022-10-08T02:38:52.352Z,19.20
2022-10-08T02:39:28.857Z,21.65
2022-10-08T02:40:06.254Z,22.83
2022-10-08T02:40:41.134Z,20.90
2022-10-08T02:41:14.510Z,22.58
2022-10-08T02:41:54.940Z,21.80
2022-10-08T02:42:28.769Z,20.60
2022-10-08T02:43:07.252Z,20.02
2022-10-08T02:43:46.980Z,21.08
2022-10-08T02:44:41.012Z,22.42
2022-10-08T02:45:16.796Z,21.48
2022-10-08T02:45:57.365Z,22.67
2022-10-08T02:46:33.718Z,22.15
2022-10-08T02:47:09.763Z,20.63
2022-10-08T02:47:44.430Z,20.02
2022-10-08T02:48:23.875Z,21.98
2022-10-08T02:49:01.496Z,20.75
2022-10-08T02:49:38.369Z,20.17
2022-10-08T02:50:19.171Z,21.88
2022-10-08T02:50:53.473Z,20.67
2022-10-08T02:51:27.758Z,21.02
2022-10-08T02:52:02.184Z,21.83
2022-10-08T02:52:39.135Z,21.35
2022-10-08T02:53:18.207Z,20.50
2022-10-08T02:53:49.869Z,19.75
2022-10-08T02:54:23.411Z,19.88
2022-10-08T02:54:55.918Z,21.27
2022-10-08T02:55:41.392Z,21.05
2022-10-08T02:56:24.310Z,21.55
2022-10-08T02:57:09.262Z,21.55
2022-10-08T02:57:45.592Z,21.63
2022-10-08T02:58:18.318Z,22.15
2022-10-08T02:58:50.093Z,20.65
2022-10-08T02:59:22.142Z,19.92
2022-10-08T02:59:53.790Z,20.75
2022-10-08T03:00:32.901Z,21.40
2022-10-08T03:01:09.977Z,21.67
2022-10-08T03:01:57.553Z,21.77
2022-10-08T03:02:43.654Z,20.23
2022-10-08T03:03:21.106Z,20.38
2022-10-08T03:04:03.738Z,21.63
2022-10-08T03:04:56.767Z,20.63
2022-10-08T03:05:29.280Z,21.40
2022-10-08T03:06:07.342Z,22.52
2022-10-08T03:06:40.118Z,22.05
2022-10-08T03:07:13.584Z,22.13
2022-10-08T03:07:48.450Z,20.67
2022-10-08T03:08:21.492Z,24.73
2022-10-08T03:08:59.077Z,21.23
2022-10-08T03:09:39.051Z,21.88
2022-10-08T03:10:12.729Z,22.02
2022-10-08T03:10:44.844Z,21.38
2022-10-08T03:11:16.891Z,21.42
2022-10-08T03:11:48.924Z,22.85
2022-10-08T03:12:20.722Z,21.33
2022-10-08T03:12:59.884Z,26.42
2022-10-08T03:13:36.570Z,24.45
2022-10-08T03:14:12.462Z,23.30
2022-10-08T03:14:48.094Z,23.88
2022-10-08T03:15:19.774Z,23.35
2022-10-08T03:15:54.022Z,22.13
2022-10-08T03:16:31.792Z,21.02
2022-10-08T03:17:03.503Z,22.15
2022-10-08T03:17:42.084Z,22.73
2022-10-08T03:18:14.495Z,21.25
2022-10-08T03:18:46.443Z,21.77
2022-10-08T03:19:18.807Z,20.50
2022-10-08T03:19:50.992Z,21.92
2022-10-08T03:20:23.320Z,22.73
2022-10-08T03:20:55.842Z,24.52
2022-10-08T03:21:28.229Z,21.70
2022-10-08T03:22:00.120Z,25.35
2022-10-08T03:22:32.030Z,24.13
2022-10-08T03:23:03.537Z,25.13
2022-10-08T03:23:35.047Z,23.20
2022-10-08T03:24:07.623Z,23.35
2022-10-08T03:24:39.146Z,25.48
2022-10-08T03:25:10.642Z,24.30
2022-10-08T03:25:42.145Z,23.35
2022-10-08T03:26:17.722Z,23.80
2022-10-08T03:26:49.296Z,26.00
2022-10-08T03:27:20.828Z,26.02
2022-10-08T03:27:52.370Z,24.98
2022-10-08T03:28:23.934Z,24.42
2022-10-08T03:28:55.490Z,25.48
2022-10-08T03:29:26.990Z,26.95
2022-10-08T03:29:58.499Z,22.92
2022-10-08T03:30:30.067Z,24.25
2022-10-08T03:31:05.651Z,22.58
2022-10-08T03:31:37.282Z,23.48
2022-10-08T03:32:08.786Z,23.23
2022-10-08T03:32:40.282Z,22.10
2022-10-08T03:33:11.778Z,22.88
2022-10-08T03:33:43.271Z,23.42
2022-10-08T03:34:14.814Z,23.25
2022-10-08T03:34:46.313Z,24.58
2022-10-08T03:35:17.827Z,22.80
2022-10-08T03:35:49.473Z,21.92
2022-10-08T03:36:22.807Z,20.50
2022-10-08T03:36:54.326Z,23.40
2022-10-08T03:37:25.848Z,24.35
2022-10-08T03:37:57.556Z,20.70
2022-10-08T03:38:29.175Z,20.10
2022-10-08T03:39:00.840Z,22.63
2022-10-08T03:39:32.430Z,22.23
2022-10-08T03:40:04.246Z,21.42
2022-10-08T03:40:35.737Z,20.98
2022-10-08T03:41:09.347Z,21.83
2022-10-08T03:41:40.874Z,22.52
2022-10-08T03:42:13.222Z,21.80
2022-10-08T03:42:45.028Z,21.65
2022-10-08T03:43:16.747Z,23.13
2022-10-08T03:43:48.310Z,22.85
2022-10-08T03:44:19.838Z,23.52
2022-10-08T03:44:51.415Z,22.25
2022-10-08T03:45:22.941Z,23.50
2022-10-08T03:45:54.971Z,23.65
2022-10-08T03:46:26.722Z,23.50
2022-10-08T03:46:58.267Z,22.60
2022-10-08T03:47:29.770Z,24.00
2022-10-08T03:48:01.290Z,22.52
2022-10-08T03:48:33.388Z,22.95
2022-10-08T03:49:05.118Z,25.00
2022-10-08T03:49:36.681Z,24.10
2022-10-08T03:50:08.857Z,26.25
2022-10-08T03:50:40.378Z,23.90
2022-10-08T03:51:13.873Z,24.58
2022-10-08T03:51:45.398Z,26.23
2022-10-08T03:52:16.929Z,24.50
2022-10-08T03:52:48.991Z,24.63
2022-10-08T03:53:21.511Z,23.60
2022-10-08T03:53:53.210Z,23.70
2022-10-08T03:54:24.893Z,27.30
2022-10-08T03:54:56.548Z,26.48
2022-10-08T03:55:28.054Z,25.85
2022-10-08T03:56:08.872Z,23.08
2022-10-08T03:56:40.375Z,27.95
2022-10-08T03:57:11.903Z,24.42
2022-10-08T03:57:43.459Z,22.83
2022-10-08T03:58:15.218Z,25.45
2022-10-08T03:58:52.078Z,24.35
2022-10-08T03:59:23.586Z,23.83
2022-10-08T03:59:55.175Z,24.77
2022-10-08T04:00:26.670Z,23.75
2022-10-08T04:00:59.750Z,25.05
2022-10-08T04:01:31.321Z,24.42
2022-10-08T04:02:02.902Z,26.98
2022-10-08T04:02:34.566Z,26.00
2022-10-08T04:03:06.247Z,26.95
2022-10-08T04:03:37.951Z,27.52
2022-10-08T04:04:09.455Z,24.35
2022-10-08T04:04:41.034Z,23.85
2022-10-08T04:05:12.539Z,23.13
2022-10-08T04:05:49.301Z,26.00
2022-10-08T04:06:21.487Z,22.75
2022-10-08T04:06:53.000Z,21.52
2022-10-08T04:07:24.578Z,23.52
2022-10-08T04:07:56.163Z,24.42
2022-10-08T04:08:28.054Z,22.88
2022-10-08T04:09:02.587Z,24.90
2022-10-08T04:09:34.369Z,22.67
2022-10-08T04:10:06.356Z,24.35
2022-10-08T04:10:38.627Z,25.00
2022-10-08T04:11:15.707Z,23.48
2022-10-08T04:11:47.221Z,24.20
2022-10-08T04:12:18.801Z,20.38
2022-10-08T04:12:50.460Z,19.38
2022-10-08T04:13:22.068Z,21.20
2022-10-08T04:13:53.603Z,22.95
2022-10-08T04:14:25.145Z,23.55
2022-10-08T04:14:56.642Z,22.67
2022-10-08T04:15:28.210Z,23.25
2022-10-08T04:16:02.071Z,22.98
2022-10-08T04:16:33.640Z,24.40
2022-10-08T04:17:05.165Z,22.00
2022-10-08T04:17:36.710Z,21.77
2022-10-08T04:18:08.342Z,23.17
2022-10-08T04:18:40.574Z,22.95
2022-10-08T04:19:12.341Z,23.90
2022-10-08T04:19:43.909Z,24.17
2022-10-08T04:20:15.553Z,22.20
2022-10-08T04:20:47.089Z,22.20
2022-10-08T04:21:20.019Z,24.38
2022-10-08T04:21:51.547Z,26.60
2022-10-08T04:22:23.068Z,26.67
2022-10-08T04:22:54.628Z,23.90
2022-10-08T04:23:27.047Z,25.88
2022-10-08T04:23:58.573Z,27.58
2022-10-08T04:24:30.072Z,27.02
2022-10-08T04:25:01.570Z,26.42
2022-10-08T04:25:33.176Z,25.75
2022-10-08T04:26:05.385Z,24.48
2022-10-08T04:26:36.899Z,26.38
2022-10-08T04:27:08.428Z,23.75
2022-10-08T04:27:40.028Z,26.02
2022-10-08T04:28:11.571Z,25.25
2022-10-08T04:28:44.554Z,24.33
2022-10-08T04:29:16.184Z,27.52
2022-10-08T04:29:47.675Z,25.55
2022-10-08T04:30:19.171Z,25.50
2022-10-08T04:31:01.382Z,27.35
2022-10-08T04:31:32.987Z,27.38
2022-10-08T04:32:04.582Z,27.35
2022-10-08T04:32:36.132Z,27.42
2022-10-08T04:33:07.660Z,26.75
2022-10-08T04:33:39.694Z,24.38
2022-10-08T04:34:11.729Z,25.38
2022-10-08T04:34:43.373Z,25.88
2022-10-08T04:35:15.100Z,24.67
2022-10-08T04:35:46.631Z,26.45
2022-10-08T04:36:21.107Z,24.63
2022-10-08T04:36:52.614Z,25.98
2022-10-08T04:37:24.352Z,28.08
2022-10-08T04:37:55.850Z,26.35
2022-10-08T04:38:28.675Z,24.92
2022-10-08T04:39:00.218Z,24.60
2022-10-08T04:39:31.782Z,26.33
2022-10-08T04:40:03.462Z,23.83
2022-10-08T04:40:35.052Z,24.25
2022-10-08T04:41:12.386Z,24.10
2022-10-08T04:41:43.887Z,24.58
2022-10-08T04:42:15.579Z,25.10
2022-10-08T04:42:52.026Z,25.13
2022-10-08T04:43:23.520Z,23.90
2022-10-08T04:44:00.408Z,24.08
2022-10-08T04:44:31.916Z,24.60
2022-10-08T04:45:03.613Z,27.05
2022-10-08T04:45:35.131Z,23.35
2022-10-08T04:46:09.055Z,24.33
2022-10-08T04:46:40.685Z,22.58
2022-10-08T04:47:12.209Z,28.10
2022-10-08T04:47:43.917Z,26.05
2022-10-08T04:48:15.513Z,26.85
2022-10-08T04:48:48.989Z,26.15
2022-10-08T04:49:20.531Z,24.67
2022-10-08T04:49:52.088Z,28.90
2022-10-08T04:50:23.668Z,27.73
2022-10-08T04:51:00.666Z,28.25
2022-10-08T04:51:32.195Z,26.20
2022-10-08T04:52:03.824Z,25.80
2022-10-08T04:52:35.355Z,25.77
2022-10-08T04:53:07.189Z,26.27
2022-10-08T04:53:39.069Z,27.15
2022-10-08T04:54:10.891Z,28.67
2022-10-08T04:54:42.416Z,27.45
2022-10-08T04:55:14.006Z,26.10
2022-10-08T04:55:45.498Z,24.13
2022-10-08T04:56:20.070Z,27.88
2022-10-08T04:56:51.608Z,26.92
2022-10-08T04:57:23.203Z,26.58
2022-10-08T04:57:54.749Z,27.73
2022-10-08T04:58:26.391Z,25.55
2022-10-08T04:59:01.397Z,26.70
2022-10-08T04:59:32.916Z,25.70
2022-10-08T05:00:18.097Z,26.05
2022-10-08T05:00:50.410Z,25.63
2022-10-08T05:01:22.946Z,25.45
2022-10-08T05:01:56.899Z,24.45
2022-10-08T05:02:28.629Z,25.65
2022-10-08T05:03:00.249Z,26.52
2022-10-08T05:03:36.350Z,24.25
2022-10-08T05:04:07.915Z,23.55
2022-10-08T05:04:39.407Z,25.48
2022-10-08T05:05:10.942Z,26.30
2022-10-08T05:05:44.769Z,34.78
2022-10-08T05:06:18.511Z,30.65
2022-10-08T05:06:50.057Z,27.15
2022-10-08T05:07:21.565Z,27.13
2022-10-08T05:07:56.667Z,23.65
2022-10-08T05:08:29.280Z,26.45
2022-10-08T05:09:04.038Z,23.70
2022-10-08T05:09:35.568Z,26.02
2022-10-08T05:10:07.463Z,24.55
2022-10-08T05:10:39.034Z,25.15
2022-10-08T05:11:11.305Z,23.25
2022-10-08T05:11:42.883Z,24.63
2022-10-08T05:12:14.380Z,25.85
2022-10-08T05:12:46.145Z,25.90
2022-10-08T05:13:17.787Z,28.40
2022-10-08T05:13:50.690Z,32.22
2022-10-08T05:14:22.283Z,33.63
2022-10-08T05:14:53.820Z,33.33
2022-10-08T05:15:25.428Z,29.50
2022-10-08T05:15:57.048Z,28.67
2022-10-08T05:16:29.030Z,31.83
2022-10-08T05:17:00.529Z,27.08
2022-10-08T05:17:32.027Z,28.27
2022-10-08T05:18:03.536Z,27.23
2022-10-08T05:18:35.534Z,27.63
2022-10-08T05:19:07.088Z,29.13
2022-10-08T05:19:38.599Z,28.83
2022-10-08T05:20:10.117Z,28.60
2022-10-08T05:20:41.651Z,28.80
2022-10-08T05:21:19.334Z,27.08
2022-10-08T05:21:50.846Z,27.52
2022-10-08T05:22:22.359Z,27.73
2022-10-08T05:22:53.859Z,26.60
2022-10-08T05:23:25.361Z,25.23
2022-10-08T05:23:59.063Z,27.92
2022-10-08T05:24:30.561Z,31.23
2022-10-08T05:25:02.067Z,34.78
2022-10-08T05:25:34.666Z,28.88
2022-10-08T05:26:18.231Z,25.60
2022-10-08T05:26:59.628Z,27.02
2022-10-08T05:27:31.302Z,32.53
2022-10-08T05:28:04.081Z,25.67
2022-10-08T05:28:35.670Z,30.10
2022-10-08T05:29:07.475Z,27.60
2022-10-08T05:29:38.982Z,27.30
2022-10-08T05:30:11.202Z,26.13
2022-10-08T05:30:42.850Z,29.20
2022-10-08T05:31:17.778Z,30.88
2022-10-08T05:31:49.343Z,30.15
2022-10-08T05:32:20.877Z,28.55
2022-10-08T05:32:52.427Z,29.05
2022-10-08T05:33:23.971Z,29.25
2022-10-08T05:33:56.482Z,27.83
2022-10-08T05:34:28.082Z,25.50
2022-10-08T05:34:59.607Z,28.52
2022-10-08T05:35:31.154Z,27.65
2022-10-08T05:36:05.458Z,27.15
2022-10-08T05:36:36.977Z,29.90
2022-10-08T05:37:08.540Z,28.67
2022-10-08T05:37:40.134Z,28.50
2022-10-08T05:38:11.680Z,26.10
2022-10-08T05:38:46.498Z,27.48
2022-10-08T05:39:18.054Z,29.20
2022-10-08T05:39:49.803Z,29.20
2022-10-08T05:40:22.077Z,30.17
2022-10-08T05:40:53.592Z,30.65
2022-10-08T05:41:28.170Z,27.02
2022-10-08T05:41:59.667Z,24.00
2022-10-08T05:42:31.199Z,27.08
2022-10-08T05:43:03.500Z,25.73
2022-10-08T05:43:35.297Z,24.77
2022-10-08T05:44:07.690Z,24.13
2022-10-08T05:44:40.573Z,25.15
2022-10-08T05:45:14.370Z,25.70
2022-10-08T05:45:52.060Z,25.67
2022-10-08T05:46:25.410Z,26.35
2022-10-08T05:46:57.017Z,26.77
2022-10-08T05:47:28.547Z,29.05
2022-10-08T05:48:00.100Z,26.98
2022-10-08T05:48:31.663Z,27.90
2022-10-08T05:49:05.844Z,26.30
2022-10-08T05:49:37.432Z,26.27
2022-10-08T05:50:09.349Z,28.13
2022-10-08T05:50:40.856Z,27.58
2022-10-08T05:51:15.046Z,27.15
2022-10-08T05:51:47.365Z,25.63
2022-10-08T05:52:18.974Z,27.08
2022-10-08T05:52:50.592Z,27.00
2022-10-08T05:53:22.215Z,25.27
2022-10-08T05:53:55.055Z,30.15
2022-10-08T05:54:26.558Z,32.42
2022-10-08T05:54:58.120Z,31.98
2022-10-08T05:55:30.037Z,31.52
2022-10-08T05:56:03.034Z,31.35
2022-10-08T05:56:34.621Z,31.05
2022-10-08T05:57:06.156Z,30.60
2022-10-08T05:57:37.670Z,26.92
2022-10-08T05:58:09.197Z,26.95
2022-10-08T05:58:41.730Z,27.35
2022-10-08T05:59:21.339Z,28.85
2022-10-08T05:59:52.844Z,27.75
2022-10-08T06:00:24.385Z,34.72
2022-10-08T06:01:00.392Z,31.05
2022-10-08T06:01:33.982Z,36.72
2022-10-08T06:02:05.535Z,37.60
2022-10-08T06:02:37.074Z,35.45
2022-10-08T06:03:08.607Z,34.65
2022-10-08T06:03:40.261Z,28.25
2022-10-08T06:04:12.390Z,28.23
2022-10-08T06:04:43.922Z,28.63
2022-10-08T06:05:15.478Z,29.08
2022-10-08T06:05:47.076Z,28.52
2022-10-08T06:06:21.179Z,30.55
2022-10-08T06:06:52.886Z,33.03
2022-10-08T06:07:24.397Z,33.10
2022-10-08T06:07:57.560Z,31.40
2022-10-08T06:08:29.248Z,32.67
2022-10-08T06:09:01.974Z,29.73
2022-10-08T06:09:33.493Z,30.08
2022-10-08T06:10:05.588Z,31.42
2022-10-08T06:10:37.152Z,37.42
2022-10-08T06:11:08.775Z,37.83
2022-10-08T06:11:40.657Z,39.13
2022-10-08T06:12:13.889Z,37.10
2022-10-08T06:12:49.055Z,33.15
2022-10-08T06:13:22.267Z,33.15
2022-10-08T06:13:58.789Z,35.30
2022-10-08T06:14:30.287Z,33.35
2022-10-08T06:15:01.798Z,37.75
2022-10-08T06:15:33.327Z,32.30
2022-10-08T06:16:08.326Z,35.03
2022-10-08T06:16:41.088Z,34.17
2022-10-08T06:17:12.835Z,36.05
2022-10-08T06:17:44.335Z,36.08
2022-10-08T06:18:15.847Z,34.50
2022-10-08T06:18:47.723Z,37.25
2022-10-08T06:19:19.349Z,42.40
2022-10-08T06:19:50.853Z,42.85
2022-10-08T06:20:22.387Z,38.60
2022-10-08T06:20:54.620Z,39.97
2022-10-08T06:21:27.089Z,32.75
2022-10-08T06:21:58.620Z,39.55
2022-10-08T06:22:30.123Z,35.40
2022-10-08T06:23:01.653Z,33.55
2022-10-08T06:23:34.088Z,36.72
2022-10-08T06:24:08.704Z,32.40
2022-10-08T06:24:40.254Z,31.00
2022-10-08T06:25:11.995Z,33.13
2022-10-08T06:25:43.550Z,29.00
2022-10-08T06:26:15.923Z,31.23
2022-10-08T06:26:47.506Z,30.35
2022-10-08T06:27:19.003Z,30.40
2022-10-08T06:27:50.502Z,31.88
2022-10-08T06:28:22.081Z,29.48
2022-10-08T06:28:53.843Z,30.67
2022-10-08T06:29:25.377Z,30.25
2022-10-08T06:29:56.880Z,30.58
2022-10-08T06:30:28.439Z,29.23
2022-10-08T06:31:00.668Z,27.15
2022-10-08T06:31:33.434Z,29.88
2022-10-08T06:32:05.055Z,26.70
2022-10-08T06:32:36.555Z,25.80
2022-10-08T06:33:09.500Z,32.30
2022-10-08T06:33:41.041Z,26.35
2022-10-08T06:34:12.632Z,30.25
2022-10-08T06:34:44.129Z,25.83
2022-10-08T06:35:15.721Z,28.30
2022-10-08T06:35:47.254Z,25.10
2022-10-08T06:36:24.837Z,25.35
2022-10-08T06:36:56.557Z,27.80
2022-10-08T06:37:28.057Z,26.10
2022-10-08T06:37:59.677Z,26.35
2022-10-08T06:38:31.223Z,24.17
2022-10-08T06:39:06.393Z,26.33
2022-10-08T06:39:37.904Z,26.85
2022-10-08T06:40:09.762Z,23.17
2022-10-08T06:40:41.318Z,23.70
2022-10-08T06:41:12.808Z,25.10
2022-10-08T06:41:44.680Z,21.83
2022-10-08T06:42:16.252Z,21.38
2022-10-08T06:42:47.982Z,19.80
2022-10-08T06:43:20.739Z,21.33
2022-10-08T06:43:52.273Z,19.35
2022-10-08T06:44:23.799Z,18.13
2022-10-08T06:44:58.733Z,19.13
2022-10-08T06:45:40.452Z,18.63
2022-10-08T06:46:12.073Z,18.20
2022-10-08T06:46:43.683Z,20.03
2022-10-08T06:47:15.295Z,19.75
2022-10-08T06:47:46.788Z,18.10
2022-10-08T06:48:19.814Z,18.83
2022-10-08T06:48:51.355Z,22.58
2022-10-08T06:49:26.647Z,18.70
2022-10-08T06:49:58.255Z,18.08
2022-10-08T06:50:29.762Z,15.23
2022-10-08T06:51:06.306Z,18.52
2022-10-08T06:51:37.857Z,20.40
2022-10-08T06:52:09.373Z,18.50
2022-10-08T06:52:40.884Z,17.33
2022-10-08T06:53:12.476Z,20.45
2022-10-08T06:53:45.121Z,17.42
2022-10-08T06:54:16.620Z,20.85
2022-10-08T06:54:48.164Z,15.60
2022-10-08T06:55:19.691Z,16.70
2022-10-08T06:55:56.828Z,17.63
2022-10-08T06:56:28.602Z,17.00
2022-10-08T06:57:00.230Z,14.82
2022-10-08T06:57:31.740Z,17.80
2022-10-08T06:58:04.826Z,15.75
2022-10-08T06:58:37.513Z,17.30
2022-10-08T06:59:09.172Z,17.35
2022-10-08T06:59:40.672Z,18.15
2022-10-08T07:00:12.636Z,14.80
2022-10-08T07:00:44.215Z,18.52
2022-10-08T07:01:26.874Z,16.98
2022-10-08T07:02:02.106Z,14.90
2022-10-08T07:02:33.720Z,15.27
2022-10-08T07:03:05.297Z,14.93
2022-10-08T07:03:37.052Z,15.63
2022-10-08T07:04:10.916Z,15.85
2022-10-08T07:04:42.419Z,16.30
2022-10-08T07:05:14.061Z,16.13
2022-10-08T07:05:45.553Z,15.00
2022-10-08T07:06:17.772Z,16.50
2022-10-08T07:06:49.256Z,17.33
2022-10-08T07:07:20.813Z,15.23
2022-10-08T07:07:52.402Z,14.45
2022-10-08T07:08:23.975Z,15.57
2022-10-08T07:08:57.855Z,15.63
2022-10-08T07:09:29.466Z,13.45
2022-10-08T07:10:01.089Z,14.52
2022-10-08T07:10:33.926Z,13.82
2022-10-08T07:11:17.361Z,15.80
2022-10-08T07:11:48.908Z,18.05
2022-10-08T07:12:20.424Z,13.27
2022-10-08T07:12:51.977Z,13.82
2022-10-08T07:13:23.503Z,14.32
2022-10-08T07:13:55.936Z,13.17
2022-10-08T07:14:27.439Z,15.38
2022-10-08T07:14:59.715Z,14.60
2022-10-08T07:15:32.709Z,12.48
2022-10-08T07:16:05.378Z,14.82
2022-10-08T07:16:37.105Z,12.93
2022-10-08T07:17:08.655Z,12.52
2022-10-08T07:17:40.171Z,13.88
2022-10-08T07:18:12.805Z,14.20
2022-10-08T07:18:46.729Z,12.98
2022-10-08T07:19:18.225Z,13.47
2022-10-08T07:19:49.720Z,12.20
2022-10-08T07:20:21.219Z,13.60
2022-10-08T07:20:56.401Z,13.20
2022-10-08T07:21:29.184Z,12.63
2022-10-08T07:22:01.568Z,13.90
2022-10-08T07:22:33.434Z,14.50
2022-10-08T07:23:05.663Z,12.70
2022-10-08T07:23:37.249Z,13.02
2022-10-08T07:24:08.830Z,11.63
2022-10-08T07:24:40.332Z,14.50